Time;durP1;ratioP1;P1;durP2;ratioP2;P2;SDS_P1;SDS_P2;PMS_P1;PMS_P2;Temp;Humidity;BMP_temperature;BMP_pressure;BME280_temperature;BME280_humidity;BME280_pressure;Samples;Min_cycle;Max_cycle;Signal;HPM_P1;HPM_P2
2022/08/13 00:00:19;;;;;;;4.07;2.65;;;;;;;;;;5080144;28;20061;-69
2022/08/13 00:02:51;;;;;;;6.80;2.58;;;;;;;;;;5078182;28;20134;-70
2022/08/13 00:05:22;;;;;;;7.68;2.63;;;;;;;;;;5072974;28;20060;-69
2022/08/13 00:08:09;;;;;;;8.57;1.98;;;;;;;;;;5078015;28;20053;-70
2022/08/13 00:10:36;;;;;;;3.38;2.08;;;;;;;;;;5084903;28;20554;-69
2022/08/13 00:13:04;;;;;;;2.03;1.90;;;;;;;;;;5090647;28;20057;-70
2022/08/13 00:15:33;;;;;;;5.68;3.55;;;;;;;;;;5083078;28;20060;-69
2022/08/13 00:18:02;;;;;;;4.88;2.35;;;;;;;;;;5071999;28;20056;-69
2022/08/13 00:20:32;;;;;;;4.38;2.42;;;;;;;;;;5077400;28;20049;-69
2022/08/13 00:22:59;;;;;;;2.20;2.00;;;;;;;;;;5072674;28;20045;-70
2022/08/13 00:25:26;;;;;;;2.97;2.10;;;;;;;;;;5075426;28;20057;-69
2022/08/13 00:28:09;;;;;;;5.20;2.10;;;;;;;;;;5079643;28;20060;-70
2022/08/13 00:30:38;;;;;;;5.07;2.60;;;;;;;;;;5079580;28;20049;-69
2022/08/13 00:33:12;;;;;;;2.47;2.25;;;;;;;;;;5086495;28;20131;-70
2022/08/13 00:35:41;;;;;;;5.18;2.40;;;;;;;;;;5079651;28;20063;-70
2022/08/13 00:38:09;;;;;;;4.65;2.30;;;;;;;;;;5075874;28;20063;-70
2022/08/13 00:40:41;;;;;;;5.18;2.47;;;;;;;;;;5078698;28;20053;-70
2022/08/13 00:43:21;;;;;;;4.22;2.30;;;;;;;;;;5076043;28;20049;-70
2022/08/13 00:45:47;;;;;;;3.75;2.45;;;;;;;;;;5082721;28;20063;-71
2022/08/13 00:51:01;;;;;;;3.25;2.40;;;;;;;;;;5087098;28;20084;-70
2022/08/13 00:53:30;;;;;;;3.13;2.30;;;;;;;;;;5081107;28;20056;-70
2022/08/13 00:56:11;;;;;;;5.25;2.53;;;;;;;;;;5078707;28;20612;-70
2022/08/13 00:58:38;;;;;;;6.20;2.65;;;;;;;;;;5076498;28;20059;-70
2022/08/13 01:01:07;;;;;;;2.35;2.00;;;;;;;;;;5087129;28;20080;-70
2022/08/13 01:03:44;;;;;;;3.45;2.20;;;;;;;;;;5086415;28;20140;-69
2022/08/13 01:06:32;;;;;;;3.05;2.47;;;;;;;;;;5078449;28;20057;-70
2022/08/13 01:08:58;;;;;;;3.65;2.40;;;;;;;;;;5080215;28;20053;-70
2022/08/13 01:11:25;;;;;;;6.93;2.92;;;;;;;;;;5087173;28;20045;-70
2022/08/13 01:13:53;;;;;;;2.70;2.47;;;;;;;;;;5086579;28;20068;-70
2022/08/13 01:16:19;;;;;;;3.60;2.47;;;;;;;;;;5075206;28;20059;-71
2022/08/13 01:18:51;;;;;;;3.83;2.20;;;;;;;;;;5080918;28;20059;-71
2022/08/13 01:21:19;;;;;;;2.55;2.35;;;;;;;;;;5085638;28;20122;-71
2022/08/13 01:23:49;;;;;;;6.00;2.38;;;;;;;;;;5091249;28;20061;-69
2022/08/13 01:26:30;;;;;;;9.23;2.45;;;;;;;;;;5099417;28;20064;-70
2022/08/13 01:28:57;;;;;;;3.53;2.53;;;;;;;;;;5076348;28;20056;-70
2022/08/13 01:31:27;;;;;;;4.40;2.40;;;;;;;;;;5077989;28;20044;-70
2022/08/13 01:33:59;;;;;;;2.75;2.13;;;;;;;;;;5072001;28;20553;-69
2022/08/13 01:36:30;;;;;;;3.22;2.30;;;;;;;;;;5077285;28;20052;-70
2022/08/13 01:39:16;;;;;;;5.35;2.67;;;;;;;;;;5078461;28;20075;-70
2022/08/13 01:41:46;;;;;;;12.40;2.67;;;;;;;;;;5089688;28;20079;-69
2022/08/13 01:44:21;;;;;;;6.40;2.50;;;;;;;;;;5075317;28;20164;-69
2022/08/13 01:52:31;;;;;;;2.53;2.22;;;;;;;;;;5081485;28;20055;-69
2022/08/13 01:54:58;;;;;;;5.05;2.25;;;;;;;;;;5076217;28;20086;-69
2022/08/13 01:57:28;;;;;;;7.97;2.42;;;;;;;;;;5091582;28;20060;-70
2022/08/13 02:00:16;;;;;;;2.92;2.20;;;;;;;;;;5070847;28;20053;-70
2022/08/13 02:02:53;;;;;;;5.93;2.28;;;;;;;;;;5069419;28;20049;-70
2022/08/13 02:05:21;;;;;;;6.40;2.20;;;;;;;;;;5081201;28;20080;-70
2022/08/13 02:08:08;;;;;;;5.72;2.78;;;;;;;;;;5085499;28;20064;-71
2022/08/13 02:10:36;;;;;;;3.42;2.40;;;;;;;;;;5070617;28;20136;-70
2022/08/13 02:13:05;;;;;;;2.58;2.17;;;;;;;;;;5084876;28;20069;-70
2022/08/13 02:15:34;;;;;;;4.90;2.47;;;;;;;;;;5088981;28;20052;-70
2022/08/13 02:18:18;;;;;;;7.45;2.30;;;;;;;;;;5088323;28;20052;-70
2022/08/13 02:20:46;;;;;;;3.70;2.38;;;;;;;;;;5092862;28;20119;-70
2022/08/13 02:23:19;;;;;;;2.45;2.17;;;;;;;;;;5091056;28;20056;-70
2022/08/13 02:26:06;;;;;;;5.10;2.60;;;;;;;;;;5086215;28;20064;-70
2022/08/13 02:28:39;;;;;;;7.78;2.75;;;;;;;;;;5090531;28;20049;-70
2022/08/13 02:31:08;;;;;;;5.13;2.35;;;;;;;;;;5082998;28;20557;-70
2022/08/13 02:33:54;;;;;;;7.80;2.45;;;;;;;;;;5074023;28;20057;-70
2022/08/13 02:36:24;;;;;;;5.18;3.30;;;;;;;;;;5089358;28;20053;-70
2022/08/13 02:38:55;;;;;;;3.65;2.20;;;;;;;;;;5087774;28;20157;-68
2022/08/13 02:41:39;;;;;;;3.78;2.50;;;;;;;;;;5074086;28;20091;-68
2022/08/13 02:44:19;;;;;;;8.70;2.38;;;;;;;;;;5090739;28;20110;-68
2022/08/13 02:46:58;;;;;;;4.90;2.30;;;;;;;;;;5073688;28;20061;-69
2022/08/13 02:49:25;;;;;;;3.72;2.35;;;;;;;;;;5075049;28;20049;-68
2022/08/13 02:52:10;;;;;;;3.33;2.37;;;;;;;;;;5092262;28;20178;-70
2022/08/13 02:54:42;;;;;;;3.72;2.13;;;;;;;;;;5074250;28;20276;-69
2022/08/13 02:57:22;;;;;;;3.15;2.45;;;;;;;;;;5072710;28;20184;-70
2022/08/13 02:59:49;;;;;;;3.13;2.20;;;;;;;;;;5080250;28;20056;-69
2022/08/13 03:02:37;;;;;;;4.45;2.20;;;;;;;;;;5089078;28;20052;-69
2022/08/13 03:05:06;;;;;;;2.85;2.30;;;;;;;;;;5087349;28;20460;-69
2022/08/13 03:07:39;;;;;;;3.40;2.20;;;;;;;;;;5085956;28;20099;-69
2022/08/13 03:10:19;;;;;;;3.38;2.42;;;;;;;;;;5076825;28;20345;-69
2022/08/13 03:13:02;;;;;;;6.45;2.53;;;;;;;;;;5078961;28;20057;-69
2022/08/13 03:15:29;;;;;;;3.47;2.30;;;;;;;;;;5083430;28;20053;-69
2022/08/13 03:17:59;;;;;;;2.38;2.17;;;;;;;;;;5082514;28;20060;-68
2022/08/13 03:20:26;;;;;;;2.72;2.30;;;;;;;;;;5092178;28;20519;-68
2022/08/13 03:23:02;;;;;;;4.20;2.85;;;;;;;;;;5090262;28;20048;-68
2022/08/13 03:25:32;;;;;;;3.30;2.38;;;;;;;;;;5082739;28;20127;-68
2022/08/13 03:28:02;;;;;;;5.93;2.58;;;;;;;;;;5091542;28;20483;-69
2022/08/13 03:30:28;;;;;;;5.45;2.47;;;;;;;;;;5075750;28;20060;-68
2022/08/13 03:32:56;;;;;;;3.28;2.28;;;;;;;;;;5080253;28;20524;-68
2022/08/13 03:35:26;;;;;;;3.60;2.30;;;;;;;;;;5081000;28;20413;-68
2022/08/13 03:38:12;;;;;;;4.57;2.28;;;;;;;;;;5087654;28;20095;-69
2022/08/13 03:43:24;;;;;;;7.60;2.45;;;;;;;;;;5077146;28;20052;-67
2022/08/13 03:45:50;;;;;;;4.55;2.30;;;;;;;;;;5091215;28;20087;-67
2022/08/13 03:48:17;;;;;;;3.55;2.40;;;;;;;;;;5076942;28;20063;-69
2022/08/13 03:50:44;;;;;;;3.03;2.30;;;;;;;;;;5080066;28;20044;-68
2022/08/13 03:53:22;;;;;;;4.75;2.13;;;;;;;;;;5084915;28;20061;-68
2022/08/13 03:56:08;;;;;;;4.13;2.28;;;;;;;;;;5086516;28;20148;-68
2022/08/13 03:58:38;;;;;;;4.47;2.70;;;;;;;;;;5072909;28;20550;-67
2022/08/13 04:01:05;;;;;;;3.50;2.28;;;;;;;;;;5085563;28;20480;-68
2022/08/13 04:03:40;;;;;;;6.45;2.38;;;;;;;;;;5088148;28;20084;-68
2022/08/13 04:06:12;;;;;;;2.28;2.08;;;;;;;;;;5082728;28;20151;-68
2022/08/13 04:08:38;;;;;;;4.35;2.40;;;;;;;;;;5078467;28;20056;-68
2022/08/13 04:11:06;;;;;;;2.17;1.98;;;;;;;;;;5075174;28;20049;-68
2022/08/13 04:13:39;;;;;;;4.38;2.58;;;;;;;;;;5078677;28;20206;-67
2022/08/13 04:16:25;;;;;;;4.13;2.50;;;;;;;;;;5091633;28;20071;-68
2022/08/13 04:18:58;;;;;;;7.43;2.40;;;;;;;;;;5082304;28;20132;-68
2022/08/13 04:21:28;;;;;;;3.85;2.38;;;;;;;;;;5083799;28;20049;-69
2022/08/13 04:23:57;;;;;;;9.48;2.08;;;;;;;;;;5096197;28;20060;-68
2022/08/13 04:26:25;;;;;;;3.13;2.15;;;;;;;;;;5072411;28;20057;-69
2022/08/13 04:28:57;;;;;;;6.18;2.30;;;;;;;;;;5079153;28;20126;-68
2022/08/13 04:31:24;;;;;;;4.50;2.20;;;;;;;;;;5087321;28;20063;-68
2022/08/13 04:34:10;;;;;;;4.80;2.28;;;;;;;;;;5088355;28;20512;-69
2022/08/13 04:36:56;;;;;;;3.95;2.50;;;;;;;;;;5080358;28;20049;-69
2022/08/13 04:39:24;;;;;;;11.70;2.60;;;;;;;;;;5074135;28;20057;-69
2022/08/13 04:42:11;;;;;;;4.47;2.47;;;;;;;;;;5089101;28;20044;-68
2022/08/13 04:44:48;;;;;;;35.17;3.08;;;;;;;;;;5073455;28;20084;-69
2022/08/13 04:47:17;;;;;;;5.20;2.20;;;;;;;;;;5092909;28;20061;-69
2022/08/13 04:49:47;;;;;;;10.80;2.50;;;;;;;;;;5089750;28;20052;-70
2022/08/13 04:52:14;;;;;;;7.28;2.35;;;;;;;;;;5078386;28;20049;-70
2022/08/13 04:54:42;;;;;;;5.20;2.10;;;;;;;;;;5088413;28;20048;-69
2022/08/13 04:57:10;;;;;;;4.75;2.33;;;;;;;;;;5072131;28;20059;-69
2022/08/13 04:59:38;;;;;;;3.75;2.42;;;;;;;;;;5071843;28;20060;-69
2022/08/13 05:02:05;;;;;;;5.10;2.45;;;;;;;;;;5074807;28;20052;-68
2022/08/13 05:04:34;;;;;;;6.15;2.97;;;;;;;;;;5078568;28;20064;-69
2022/08/13 05:07:18;;;;;;;2.67;2.15;;;;;;;;;;5091638;28;20137;-68
2022/08/13 05:09:45;;;;;;;3.55;2.22;;;;;;;;;;5085931;28;20092;-68
2022/08/13 05:12:18;;;;;;;6.22;2.65;;;;;;;;;;5082504;28;20065;-68
2022/08/13 05:15:06;;;;;;;3.55;2.38;;;;;;;;;;5092877;28;20511;-68
2022/08/13 05:17:38;;;;;;;7.03;2.25;;;;;;;;;;5112647;27;20063;-68
2022/08/13 05:20:13;;;;;;;2.63;2.40;;;;;;;;;;5088493;27;20056;-68
2022/08/13 05:22:41;;;;;;;2.55;2.28;;;;;;;;;;5085575;28;20118;-68
2022/08/13 05:25:28;;;;;;;2.90;2.60;;;;;;;;;;5076469;28;20053;-68
2022/08/13 05:28:16;;;;;;;5.65;2.42;;;;;;;;;;5092554;28;20052;-68
2022/08/13 05:30:55;;;;;;;5.10;2.72;;;;;;;;;;5110544;27;20087;-68
2022/08/13 05:33:25;;;;;;;7.78;2.70;;;;;;;;;;5075933;28;20049;-68
2022/08/13 05:36:09;;;;;;;3.33;2.72;;;;;;;;;;5072777;28;20103;-68
2022/08/13 05:38:58;;;;;;;3.22;2.35;;;;;;;;;;5086285;28;20052;-68
2022/08/13 05:41:26;;;;;;;7.50;2.58;;;;;;;;;;5075418;28;20137;-68
2022/08/13 05:43:52;;;;;;;3.60;2.42;;;;;;;;;;5090239;28;20084;-68
2022/08/13 05:46:19;;;;;;;4.25;2.33;;;;;;;;;;5079055;28;20055;-68
2022/08/13 05:48:59;;;;;;;6.25;3.13;;;;;;;;;;5072370;28;20505;-68
2022/08/13 05:51:28;;;;;;;5.85;2.45;;;;;;;;;;5071363;28;20053;-69
2022/08/13 05:54:16;;;;;;;5.15;2.33;;;;;;;;;;5072549;28;20052;-68
2022/08/13 05:57:03;;;;;;;15.48;2.67;;;;;;;;;;5076297;28;20052;-68
2022/08/13 06:05:02;;;;;;;6.38;2.42;;;;;;;;;;5078859;28;20064;-70
2022/08/13 06:07:29;;;;;;;2.42;2.13;;;;;;;;;;5076966;28;20147;-70
2022/08/13 06:09:57;;;;;;;2.55;2.15;;;;;;;;;;5094726;28;20049;-70
2022/08/13 06:12:25;;;;;;;3.60;2.40;;;;;;;;;;5091907;28;20099;-70
2022/08/13 06:15:09;;;;;;;6.97;2.00;;;;;;;;;;5092859;28;20052;-69
2022/08/13 06:17:36;;;;;;;5.53;2.00;;;;;;;;;;5079702;28;20603;-69
2022/08/13 06:20:06;;;;;;;2.75;2.20;;;;;;;;;;5092127;28;20140;-70
2022/08/13 06:22:47;;;;;;;7.97;2.47;;;;;;;;;;5085634;28;20167;-70
2022/08/13 06:25:19;;;;;;;4.93;2.60;;;;;;;;;;5087554;28;20053;-68
2022/08/13 06:27:45;;;;;;;4.00;2.05;;;;;;;;;;5084055;28;20488;-69
2022/08/13 06:30:25;;;;;;;2.33;2.08;;;;;;;;;;5091959;28;20187;-68
2022/08/13 06:33:02;;;;;;;9.07;2.00;;;;;;;;;;5074885;28;20284;-68
2022/08/13 06:35:59;;;;;;;6.15;1.98;;;;;;;;;;5073123;28;20057;-69
2022/08/13 06:38:35;;;;;;;4.65;2.00;;;;;;;;;;5073981;28;20060;-69
2022/08/13 06:41:02;;;;;;;3.00;2.03;;;;;;;;;;5080584;28;20059;-69
2022/08/13 06:43:35;;;;;;;3.65;2.40;;;;;;;;;;5093333;28;20053;-69
2022/08/13 06:46:22;;;;;;;2.35;1.85;;;;;;;;;;5078836;28;20628;-69
2022/08/13 06:48:57;;;;;;;6.70;1.90;;;;;;;;;;5077476;28;20053;-69
2022/08/13 06:51:24;;;;;;;5.20;2.10;;;;;;;;;;5073832;28;20052;-70
2022/08/13 06:53:50;;;;;;;6.38;1.80;;;;;;;;;;5074519;28;20061;-69
2022/08/13 06:56:37;;;;;;;3.05;1.95;;;;;;;;;;5093573;28;20436;-69
2022/08/13 06:59:24;;;;;;;1.75;1.60;;;;;;;;;;5094337;28;20044;-68
2022/08/13 07:02:01;;;;;;;2.80;1.95;;;;;;;;;;5075212;28;20160;-70
2022/08/13 07:04:35;;;;;;;3.40;2.08;;;;;;;;;;5073570;28;20061;-68
2022/08/13 07:07:03;;;;;;;3.58;1.80;;;;;;;;;;5093852;28;20137;-70
2022/08/13 07:09:31;;;;;;;5.15;2.00;;;;;;;;;;5094229;28;20053;-69
2022/08/13 07:12:08;;;;;;;4.47;2.50;;;;;;;;;;5092502;28;20064;-69
2022/08/13 07:14:35;;;;;;;5.70;1.67;;;;;;;;;;5093460;28;20084;-69
2022/08/13 07:17:01;;;;;;;3.65;1.67;;;;;;;;;;5092402;28;20060;-69
2022/08/13 07:19:29;;;;;;;2.13;1.77;;;;;;;;;;5073271;28;20048;-68
2022/08/13 07:22:16;;;;;;;4.13;1.90;;;;;;;;;;5074891;28;20057;-70
2022/08/13 07:25:03;;;;;;;5.88;1.77;;;;;;;;;;5078848;28;20048;-70
2022/08/13 07:27:30;;;;;;;3.80;1.70;;;;;;;;;;5077057;28;20507;-69
2022/08/13 07:29:56;;;;;;;4.95;2.08;;;;;;;;;;5073672;28;20057;-69
2022/08/13 07:32:23;;;;;;;4.47;1.73;;;;;;;;;;5073890;28;20049;-69
2022/08/13 07:34:58;;;;;;;2.08;1.42;;;;;;;;;;5071700;28;20523;-69
2022/08/13 07:37:25;;;;;;;2.95;1.75;;;;;;;;;;5073252;28;20056;-69
2022/08/13 07:39:52;;;;;;;3.20;1.98;;;;;;;;;;5085972;28;20412;-69
2022/08/13 07:42:22;;;;;;;9.52;1.80;;;;;;;;;;5091392;28;20144;-69
2022/08/13 07:45:06;;;;;;;3.00;1.60;;;;;;;;;;5092524;28;20583;-69
2022/08/13 07:47:54;;;;;;;9.75;2.13;;;;;;;;;;5092325;28;20057;-70
2022/08/13 07:50:41;;;;;;;2.20;2.00;;;;;;;;;;5082643;28;20059;-71
2022/08/13 07:53:28;;;;;;;7.38;1.85;;;;;;;;;;5086927;28;20064;-68
2022/08/13 07:56:29;;;;;;;4.15;1.73;;;;;;;;;;5073157;28;20049;-70
2022/08/13 07:59:01;;;;;;;2.75;1.90;;;;;;;;;;5090626;28;20052;-69
2022/08/13 08:01:31;;;;;;;4.05;2.47;;;;;;;;;;5078164;28;20065;-69
2022/08/13 08:04:18;;;;;;;5.80;1.80;;;;;;;;;;5085829;28;20052;-69
2022/08/13 08:06:55;;;;;;;8.48;2.30;;;;;;;;;;5086787;28;20053;-73
2022/08/13 08:09:24;;;;;;;4.05;2.60;;;;;;;;;;5077749;28;20087;-69
2022/08/13 08:14:42;;;;;;;3.75;1.90;;;;;;;;;;5074367;28;20064;-69
2022/08/13 08:17:21;;;;;;;6.47;2.15;;;;;;;;;;5090132;28;20443;-72
2022/08/13 08:20:08;;;;;;;3.30;1.98;;;;;;;;;;5073102;28;20475;-69
2022/08/13 08:22:45;;;;;;;4.05;2.05;;;;;;;;;;5072171;28;20056;-70
2022/08/13 08:25:16;;;;;;;3.50;1.83;;;;;;;;;;5074594;28;20052;-70
2022/08/13 08:27:47;;;;;;;3.30;1.70;;;;;;;;;;5092701;28;20079;-69
2022/08/13 08:30:33;;;;;;;2.33;1.70;;;;;;;;;;5072519;28;20412;-70
2022/08/13 08:33:00;;;;;;;3.08;1.80;;;;;;;;;;5072826;28;20053;-69
2022/08/13 08:35:29;;;;;;;5.90;1.88;;;;;;;;;;5071235;28;20111;-69
2022/08/13 08:43:48;;;;;;;8.20;2.00;;;;;;;;;;5071863;28;20562;-70
2022/08/13 08:46:16;;;;;;;2.47;2.28;;;;;;;;;;5072318;28;20057;-70
2022/08/13 08:48:42;;;;;;;3.15;1.80;;;;;;;;;;5079188;28;20510;-70
2022/08/13 08:51:21;;;;;;;11.60;2.03;;;;;;;;;;5080000;28;20049;-73
2022/08/13 08:53:48;;;;;;;1.98;1.77;;;;;;;;;;5072122;28;20509;-73
2022/08/13 08:56:35;;;;;;;1.80;1.67;;;;;;;;;;5072446;28;20053;-74
2022/08/13 08:59:02;;;;;;;2.67;1.90;;;;;;;;;;5094936;28;20499;-70
2022/08/13 09:01:32;;;;;;;3.53;1.98;;;;;;;;;;5084001;27;20049;-71
2022/08/13 09:04:20;;;;;;;4.35;1.65;;;;;;;;;;5071669;28;20981;-70
2022/08/13 09:06:52;;;;;;;2.15;1.60;;;;;;;;;;5072309;28;20057;-70
2022/08/13 09:09:23;;;;;;;2.45;1.73;;;;;;;;;;5071566;28;20107;-70
2022/08/13 09:11:52;;;;;;;2.55;2.13;;;;;;;;;;5071567;28;20064;-71
2022/08/13 09:14:26;;;;;;;2.75;2.08;;;;;;;;;;5077767;28;20057;-70
2022/08/13 09:16:55;;;;;;;5.20;1.77;;;;;;;;;;5091578;28;20052;-70
2022/08/13 09:19:23;;;;;;;3.58;1.67;;;;;;;;;;5071915;28;20092;-70
2022/08/13 09:22:09;;;;;;;2.58;1.75;;;;;;;;;;5072505;28;20057;-71
2022/08/13 09:24:39;;;;;;;3.08;1.70;;;;;;;;;;5077395;28;20057;-74
2022/08/13 09:27:06;;;;;;;2.83;1.77;;;;;;;;;;5092079;28;20491;-69
2022/08/13 09:29:32;;;;;;;3.10;1.77;;;;;;;;;;5089756;28;20091;-70
2022/08/13 09:32:05;;;;;;;5.32;1.55;;;;;;;;;;5084917;28;20053;-69
2022/08/13 09:34:33;;;;;;;2.50;1.50;;;;;;;;;;5074718;28;20064;-69
2022/08/13 09:37:07;;;;;;;1.98;1.40;;;;;;;;;;5074431;28;20499;-69
2022/08/13 09:39:40;;;;;;;2.47;1.85;;;;;;;;;;5098746;28;20059;-70
2022/08/13 09:42:13;;;;;;;4.90;1.90;;;;;;;;;;5092863;27;20091;-72
2022/08/13 09:44:49;;;;;;;3.13;2.15;;;;;;;;;;5083324;28;20166;-69
2022/08/13 09:47:17;;;;;;;3.50;1.63;;;;;;;;;;5103348;28;20047;-69
2022/08/13 09:50:04;;;;;;;1.42;1.33;;;;;;;;;;5109902;27;20511;-69
2022/08/13 09:52:30;;;;;;;2.55;1.45;;;;;;;;;;5091297;28;20052;-69
2022/08/13 09:54:57;;;;;;;6.05;1.80;;;;;;;;;;5091566;28;20488;-69
2022/08/13 09:57:24;;;;;;;1.83;1.20;;;;;;;;;;5091679;28;20491;-69
2022/08/13 09:59:51;;;;;;;3.78;1.42;;;;;;;;;;5075371;28;20055;-69
2022/08/13 10:02:23;;;;;;;2.33;1.45;;;;;;;;;;5071198;28;20076;-69
2022/08/13 10:04:52;;;;;;;3.05;1.45;;;;;;;;;;5069877;28;20053;-69
2022/08/13 10:07:21;;;;;;;1.52;1.23;;;;;;;;;;5071172;28;20051;-70
2022/08/13 10:09:48;;;;;;;2.10;1.20;;;;;;;;;;5086111;28;20500;-68
2022/08/13 10:12:35;;;;;;;2.03;1.40;;;;;;;;;;5089680;28;20065;-72
2022/08/13 10:15:01;;;;;;;1.95;1.42;;;;;;;;;;5078455;28;20052;-72
2022/08/13 10:17:41;;;;;;;2.63;1.70;;;;;;;;;;5094466;28;20053;-72
2022/08/13 10:20:25;;;;;;;2.80;1.50;;;;;;;;;;5093244;28;20059;-70
2022/08/13 10:22:53;;;;;;;3.88;1.60;;;;;;;;;;5091738;28;20072;-69
2022/08/13 10:25:20;;;;;;;2.92;1.55;;;;;;;;;;5092992;28;20057;-69
2022/08/13 10:27:47;;;;;;;1.50;1.40;;;;;;;;;;5092841;28;20506;-70
2022/08/13 10:30:17;;;;;;;3.97;1.67;;;;;;;;;;5091984;28;20087;-70
2022/08/13 10:33:04;;;;;;;1.55;1.33;;;;;;;;;;5091417;28;20056;-70
2022/08/13 10:35:31;;;;;;;3.67;1.52;;;;;;;;;;5085507;28;20057;-70
2022/08/13 10:37:57;;;;;;;3.55;1.52;;;;;;;;;;5070994;28;20053;-68
2022/08/13 10:40:25;;;;;;;2.50;1.40;;;;;;;;;;5091536;28;20059;-68
2022/08/13 10:43:04;;;;;;;8.23;1.63;;;;;;;;;;5104318;28;20091;-69
2022/08/13 10:45:31;;;;;;;1.88;1.52;;;;;;;;;;5079104;28;20144;-69
2022/08/13 10:48:00;;;;;;;3.33;1.75;;;;;;;;;;5094503;28;20405;-68
2022/08/13 10:50:29;;;;;;;4.45;1.40;;;;;;;;;;5081967;28;20049;-67
2022/08/13 10:52:59;;;;;;;1.88;0.90;;;;;;;;;;5114766;28;20530;-67
2022/08/13 10:55:25;;;;;;;4.20;1.30;;;;;;;;;;5105280;27;20058;-68
2022/08/13 10:57:58;;;;;;;4.35;1.27;;;;;;;;;;5088740;28;20060;-67
2022/08/13 11:00:44;;;;;;;3.83;1.20;;;;;;;;;;5092672;28;20515;-68
2022/08/13 11:03:17;;;;;;;4.85;1.20;;;;;;;;;;5093694;28;20057;-67
2022/08/13 11:05:45;;;;;;;2.30;1.17;;;;;;;;;;5084010;28;20057;-68
2022/08/13 11:08:13;;;;;;;2.88;1.30;;;;;;;;;;5082899;28;20076;-67
2022/08/13 11:10:40;;;;;;;1.40;1.30;;;;;;;;;;5074024;28;20500;-69
2022/08/13 11:13:26;;;;;;;2.33;1.17;;;;;;;;;;5089583;28;20056;-68
2022/08/13 11:17:17;;;;;;;4.55;1.05;;;;;;;;;;5092014;28;20052;-67
2022/08/13 11:19:29;;;;;;;3.78;1.27;;;;;;;;;;5068771;28;20056;-67
2022/08/13 11:22:15;;;;;;;1.33;0.90;;;;;;;;;;5093589;28;20048;-67
2022/08/13 11:24:52;;;;;;;2.83;1.10;;;;;;;;;;5093792;28;20090;-67
2022/08/13 11:27:18;;;;;;;1.10;1.10;;;;;;;;;;5074141;28;20061;-67
2022/08/13 11:29:48;;;;;;;1.98;1.10;;;;;;;;;;5073461;28;20079;-67
2022/08/13 11:32:15;;;;;;;2.90;1.20;;;;;;;;;;5073225;28;20052;-67
2022/08/13 11:34:48;;;;;;;3.95;1.10;;;;;;;;;;5073938;28;20059;-68
2022/08/13 11:37:15;;;;;;;1.88;0.95;;;;;;;;;;5075109;28;20138;-68
2022/08/13 11:39:42;;;;;;;1.13;1.08;;;;;;;;;;5100731;28;20056;-69
2022/08/13 11:42:28;;;;;;;4.20;1.00;;;;;;;;;;5113958;28;20547;-69
2022/08/13 11:44:54;;;;;;;0.70;0.70;;;;;;;;;;5093478;28;20062;-70
2022/08/13 11:47:21;;;;;;;2.58;0.90;;;;;;;;;;5093134;28;20056;-68
2022/08/13 11:49:56;;;;;;;0.80;0.80;;;;;;;;;;5091992;28;20048;-68
2022/08/13 11:52:23;;;;;;;3.28;1.20;;;;;;;;;;5091574;28;20530;-68
2022/08/13 11:54:54;;;;;;;4.78;1.35;;;;;;;;;;5073546;28;20115;-68
2022/08/13 11:57:21;;;;;;;2.67;1.50;;;;;;;;;;5082838;28;20056;-67
2022/08/13 11:59:48;;;;;;;1.10;1.00;;;;;;;;;;5080734;28;20076;-69
2022/08/13 12:02:20;;;;;;;1.45;1.25;;;;;;;;;;5093339;28;20095;-69
2022/08/13 12:04:59;;;;;;;1.55;1.05;;;;;;;;;;5082925;28;20463;-68
2022/08/13 12:07:31;;;;;;;2.23;1.10;;;;;;;;;;5086525;28;20057;-67
2022/08/13 12:10:08;;;;;;;1.38;1.15;;;;;;;;;;5090867;28;20052;-68
2022/08/13 12:12:55;;;;;;;1.92;1.27;;;;;;;;;;5105310;28;20052;-69
2022/08/13 12:15:22;;;;;;;2.55;1.40;;;;;;;;;;5094171;27;20056;-69
2022/08/13 12:18:12;;;;;;;5.70;1.30;;;;;;;;;;5091783;28;20063;-68
2022/08/13 12:20:41;;;;;;;4.65;1.05;;;;;;;;;;5078516;28;20048;-68
2022/08/13 12:23:08;;;;;;;3.03;1.05;;;;;;;;;;5092963;28;20088;-69
2022/08/13 12:25:52;;;;;;;;;;;;;;;;;;5080068;28;20058;-68
2022/08/13 12:28:28;;;;;;;1.30;1.00;;;;;;;;;;5083769;28;45851;-68
2022/08/13 12:31:00;;;;;;;4.22;1.13;;;;;;;;;;5078563;28;20057;-68
2022/08/13 12:33:33;;;;;;;1.63;0.90;;;;;;;;;;5092134;28;20084;-68
2022/08/13 12:36:10;;;;;;;1.40;0.98;;;;;;;;;;5081044;28;20090;-68
2022/08/13 12:38:42;;;;;;;1.13;1.00;;;;;;;;;;5090924;28;20499;-68
2022/08/13 12:41:26;;;;;;;1.85;1.17;;;;;;;;;;5092201;28;20511;-68
2022/08/13 12:44:11;;;;;;;0.93;0.93;;;;;;;;;;5092458;28;20141;-68
2022/08/13 12:46:58;;;;;;;4.38;1.10;;;;;;;;;;5072156;28;20396;-68
2022/08/13 12:49:26;;;;;;;3.40;0.90;;;;;;;;;;5084676;28;20052;-68
2022/08/13 12:51:52;;;;;;;1.35;1.20;;;;;;;;;;5084668;28;20059;-68
2022/08/13 12:54:22;;;;;;;2.30;1.00;;;;;;;;;;5079984;28;20420;-70
2022/08/13 12:57:08;;;;;;;2.70;1.20;;;;;;;;;;5073275;28;20060;-69
2022/08/13 12:59:53;;;;;;;1.95;1.17;;;;;;;;;;5070885;28;20158;-69
2022/08/13 13:02:28;;;;;;;0.93;0.93;;;;;;;;;;5078568;28;20056;-68
2022/08/13 13:04:55;;;;;;;1.10;1.02;;;;;;;;;;5092008;28;20057;-69
2022/08/13 13:07:41;;;;;;;2.65;1.33;;;;;;;;;;5092331;28;20041;-68
2022/08/13 13:10:28;;;;;;;1.08;0.98;;;;;;;;;;5090938;28;21207;-69
2022/08/13 13:12:54;;;;;;;3.55;1.00;;;;;;;;;;5071333;28;20060;-68
2022/08/13 13:15:21;;;;;;;2.95;1.20;;;;;;;;;;5071664;28;20055;-69
2022/08/13 13:18:11;;;;;;;2.70;1.08;;;;;;;;;;5071741;28;20057;-68
2022/08/13 13:20:58;;;;;;;3.45;1.60;;;;;;;;;;5089488;28;20060;-68
2022/08/13 13:23:26;;;;;;;1.75;1.23;;;;;;;;;;5090717;28;20078;-69
2022/08/13 13:25:54;;;;;;;2.55;1.40;;;;;;;;;;5092031;28;20048;-68
2022/08/13 13:28:24;;;;;;;1.13;1.00;;;;;;;;;;5091708;28;20067;-68
2022/08/13 13:30:56;;;;;;;3.45;1.10;;;;;;;;;;5091844;28;20539;-69
2022/08/13 13:33:41;;;;;;;1.77;1.10;;;;;;;;;;5090464;28;20044;-67
2022/08/13 13:36:12;;;;;;;1.70;1.25;;;;;;;;;;5085297;28;20065;-68
2022/08/13 13:38:46;;;;;;;3.03;1.00;;;;;;;;;;5114413;27;20059;-68
2022/08/13 13:41:21;;;;;;;1.70;1.25;;;;;;;;;;5091927;28;20515;-68
2022/08/13 13:44:08;;;;;;;2.30;1.25;;;;;;;;;;5091639;28;20055;-68
2022/08/13 13:46:54;;;;;;;2.10;1.17;;;;;;;;;;5086317;28;20059;-68
2022/08/13 13:49:24;;;;;;;7.28;1.20;;;;;;;;;;5090587;28;20059;-68
2022/08/13 13:51:51;;;;;;;2.80;1.20;;;;;;;;;;5106423;28;20047;-68
2022/08/13 13:54:19;;;;;;;2.35;1.15;;;;;;;;;;5092994;27;20060;-68
2022/08/13 13:56:51;;;;;;;2.38;0.88;;;;;;;;;;5089104;28;20061;-68
2022/08/13 13:59:17;;;;;;;1.52;1.10;;;;;;;;;;5087897;28;20056;-68
2022/08/13 14:02:04;;;;;;;1.20;1.10;;;;;;;;;;5084005;28;20083;-69
2022/08/13 14:04:34;;;;;;;7.72;1.58;;;;;;;;;;5087904;28;20057;-67
2022/08/13 14:07:20;;;;;;;3.33;1.70;;;;;;;;;;5071311;28;20053;-67
2022/08/13 14:10:07;;;;;;;1.52;1.05;;;;;;;;;;5079035;28;20061;-68
2022/08/13 14:12:34;;;;;;;1.17;1.10;;;;;;;;;;5091180;28;20064;-69
2022/08/13 14:15:21;;;;;;;1.40;1.30;;;;;;;;;;5092851;28;20052;-68
2022/08/13 14:17:53;;;;;;;3.05;1.27;;;;;;;;;;5073890;28;20500;-68
2022/08/13 14:20:41;;;;;;;1.05;1.00;;;;;;;;;;5076861;28;20060;-68
2022/08/13 14:23:08;;;;;;;3.80;1.20;;;;;;;;;;5082274;28;20057;-68
2022/08/13 14:25:45;;;;;;;1.13;1.00;;;;;;;;;;5096609;28;20059;-69
2022/08/13 14:28:24;;;;;;;1.15;1.02;;;;;;;;;;5084015;28;20061;-68
2022/08/13 14:30:52;;;;;;;2.90;1.20;;;;;;;;;;5073484;28;20176;-68
2022/08/13 14:33:19;;;;;;;1.65;0.90;;;;;;;;;;5074073;28;20143;-68
2022/08/13 14:36:06;;;;;;;2.97;1.52;;;;;;;;;;5074864;28;20053;-68
2022/08/13 14:38:33;;;;;;;2.00;1.20;;;;;;;;;;5089844;28;20051;-69
2022/08/13 14:41:10;;;;;;;1.45;1.35;;;;;;;;;;5094785;28;20063;-68
2022/08/13 14:43:45;;;;;;;3.90;1.15;;;;;;;;;;5093792;28;20049;-68
2022/08/13 14:46:28;;;;;;;1.33;1.25;;;;;;;;;;5085985;28;20057;-68
2022/08/13 14:48:59;;;;;;;4.38;1.08;;;;;;;;;;5094381;28;20914;-68
2022/08/13 14:51:28;;;;;;;1.10;1.10;;;;;;;;;;5105922;28;20051;-70
2022/08/13 14:54:14;;;;;;;2.08;0.90;;;;;;;;;;5091474;27;20062;-69
2022/08/13 14:56:40;;;;;;;2.25;1.20;;;;;;;;;;5082034;28;20063;-68
2022/08/13 14:59:11;;;;;;;2.63;1.13;;;;;;;;;;5074404;28;20119;-68
2022/08/13 15:01:47;;;;;;;1.63;1.27;;;;;;;;;;5074711;28;20489;-69
2022/08/13 15:04:14;;;;;;;1.30;1.20;;;;;;;;;;5072304;28;20077;-68
2022/08/13 15:06:41;;;;;;;2.13;1.10;;;;;;;;;;5081862;28;20059;-69
2022/08/13 15:09:09;;;;;;;1.10;1.05;;;;;;;;;;5096064;28;20500;-68
2022/08/13 15:11:45;;;;;;;4.35;1.40;;;;;;;;;;5089951;28;20059;-68
2022/08/13 15:14:17;;;;;;;2.25;1.05;;;;;;;;;;5083071;28;20048;-68
2022/08/13 15:16:44;;;;;;;2.40;1.20;;;;;;;;;;5101436;28;20053;-69
2022/08/13 15:19:11;;;;;;;1.30;1.20;;;;;;;;;;5088931;28;20469;-68
2022/08/13 15:21:44;;;;;;;0.90;0.90;;;;;;;;;;5076154;28;20096;-68
2022/08/13 15:24:29;;;;;;;4.43;1.25;;;;;;;;;;5080589;28;20061;-72
2022/08/13 15:27:23;;;;;;;1.67;1.20;;;;;;;;;;5092558;27;20048;-70
2022/08/13 15:29:52;;;;;;;0.90;0.90;;;;;;;;;;5091291;28;20080;-70
2022/08/13 15:32:18;;;;;;;2.85;1.17;;;;;;;;;;5081382;28;20053;-71
2022/08/13 15:34:57;;;;;;;2.55;1.20;;;;;;;;;;5082464;28;20495;-70
2022/08/13 15:37:25;;;;;;;1.95;1.25;;;;;;;;;;5082645;28;20056;-69
2022/08/13 15:40:16;;;;;;;1.40;1.30;;;;;;;;;;5073700;28;20057;-70
2022/08/13 15:42:47;;;;;;;1.13;1.02;;;;;;;;;;5073321;28;20053;-69
2022/08/13 15:45:15;;;;;;;2.00;1.10;;;;;;;;;;5075529;28;20059;-69
2022/08/13 15:47:46;;;;;;;2.15;1.50;;;;;;;;;;5073511;28;20055;-68